Hauptseite
METAR-TAF:

METAR-TAF

Flughäfen :

Funchal, Madeira, Portugal

Flughafen Madeira

Breite: 32-41-52N, Länge: 016-46-28W, Höhe: 59 m

Beobachtung

Neuester Wetterbericht von vor 41 Minuten, um 02:00 UTC
Wind 7 kt aus Nord
Temperatur 24°C
Luftfeuchtigkeit 36%
Luftdruck 1018 hPa
Sichtweite 10 km oder mehr
Leicht bewölkt in der Höhe von 1500 ft

METAR: LPMA 280200Z 01007KT 9999 FEW015 24/08 Q1018

Zeit: 03:41 (02:41 UTC)

Prognose

Neuester Wetterbericht von vor 3 Stunden und 41 Minuten, um 23:00 UTC
Gültige Prognose vom 28 um 00 UTC bis 28 um 24 UTC
Wind 10 kt aus Nord/Nordost
Sichtweite 10 km oder mehr
Leicht bewölkt in der Höhe von 1500 ft
Wahrscheinlichkeit 30% :
Zeitweise
vom 28 um 00 UTC bis 28 um 09 UTC
Wind 5 kt aus unterschiedlichen Richtungen

TAF: LPMA 272300Z 2800/2824 03010KT 9999 FEW015 PROB30 TEMPO 2800/2809 VRB05KT

Wetterbeobachtungen und Prognosen von mehr als 4000 Flughäfen (METAR und TAF Bericht).

Die verfügbaren Stationen werden durch gelbe und rote Markierungen auf der Karte dargestellt.

Führen Sie die Maus auf sie, um den Namen der Station zu sehen.

Darauf klicken, um die Beobachtung von Wetterbeobachtungen und Prognosen zu sehen.

Um die Karte zu ändern : klicken Sie auf den grünen Tasten mit einem schwarzen Kreuz Zum Vergrößern, auf den grünen Button mit einem Gedankenstrich zu verkleinern, oder auf die grünen Pfeile für benachbarte Karten.


METAR-TAF: